Time;durP1;ratioP1;P1;durP2;ratioP2;P2;SDS_P1;SDS_P2;PMS_P1;PMS_P2;Temp;Humidity;BMP_temperature;BMP_pressure;BME280_temperature;BME280_humidity;BME280_pressure;Samples;Min_cycle;Max_cycle;Signal;HPM_P1;HPM_P2
2022/01/13 00:00:50;;;;;;;;;35.00;33.75;;;;;7.11;64.53;103610.03;5024378;28;47132;-59
2022/01/13 00:03:15;;;;;;;;;34.50;31.25;;;;;7.11;64.43;103598.69;5020447;28;45514;-59
2022/01/13 00:05:40;;;;;;;;;28.50;20.50;;;;;7.09;64.35;103603.81;5022291;28;45300;-60
2022/01/13 00:08:06;;;;;;;;;43.75;34.25;;;;;7.09;64.38;103603.81;5041447;28;45369;-60
2022/01/13 00:10:31;;;;;;;;;42.75;33.75;;;;;7.06;64.51;103593.25;5036591;28;47061;-60
2022/01/13 00:13:03;;;;;;;;;40.75;35.25;;;;;7.08;64.46;103598.53;5041405;28;45297;-59
2022/01/13 00:15:45;;;;;;;;;47.50;36.75;;;;;7.07;64.48;103588.91;5044028;28;45265;-59
2022/01/13 00:18:19;;;;;;;;;39.50;35.25;;;;;7.07;64.43;103592.44;5043510;28;45488;-60
2022/01/13 00:26:06;;;;;;;;;39.25;29.50;;;;;7.05;64.67;103593.19;5050107;28;45363;-59
2022/01/13 00:28:31;;;;;;;;;33.75;30.50;;;;;6.97;64.70;103574.53;5044706;28;45343;-59
2022/01/13 00:30:58;;;;;;;;;35.00;29.75;;;;;7.05;64.44;103595.81;5041101;28;45467;-59
2022/01/13 00:33:25;;;;;;;;;38.50;31.50;;;;;7.00;64.63;103585.13;5041011;28;45322;-59
2022/01/13 00:35:53;;;;;;;;;30.75;26.50;;;;;6.99;64.49;103589.47;5041171;28;45374;-60
2022/01/13 00:38:19;;;;;;;;;30.50;25.75;;;;;6.99;64.74;103586.84;5040686;28;45444;-59
2022/01/13 00:40:44;;;;;;;;;29.00;26.25;;;;;6.95;64.76;103582.28;5022982;28;45968;-59
2022/01/13 00:43:09;;;;;;;;;33.00;28.25;;;;;6.96;64.77;103583.19;5019460;28;45195;-59
2022/01/13 00:45:35;;;;;;;;;38.75;31.25;;;;;6.98;64.69;103589.38;5041265;28;45435;-59
2022/01/13 00:48:00;;;;;;;;;42.75;32.75;;;;;6.98;64.76;103585.06;5054369;28;45239;-59
2022/01/13 00:50:25;;;;;;;;;34.50;26.25;;;;;6.98;64.60;103590.28;5058424;28;45249;-60
2022/01/13 00:52:51;;;;;;;;;34.75;28.50;;;;;6.99;64.50;103586.84;5043552;28;45399;-60
2022/01/13 00:55:21;;;;;;;;;32.00;28.50;;;;;6.98;64.60;103589.38;5040910;28;45404;-59
2022/01/13 00:57:47;;;;;;;;;34.00;26.75;;;;;6.99;64.76;103591.16;5040360;28;45382;-59
2022/01/13 01:00:13;;;;;;;;;30.50;26.75;;;;;6.97;64.61;103590.22;5040694;28;46260;-59
2022/01/13 01:02:38;;;;;;;;;35.50;29.00;;;;;6.98;64.82;103586.75;5040333;28;45333;-59
2022/01/13 01:05:04;;;;;;;;;27.50;26.25;;;;;6.95;64.81;103584.00;5040086;28;45304;-59
2022/01/13 01:07:29;;;;;;;;;23.25;17.75;;;;;6.96;64.95;103593.66;5040114;28;45249;-59
2022/01/13 01:09:58;;;;;;;;;26.25;23.00;;;;;6.93;64.73;103589.19;5049984;28;46027;-59
2022/01/13 01:12:23;;;;;;;;;20.50;17.50;;;;;6.93;64.63;103581.34;5043908;28;45293;-59
2022/01/13 01:14:54;;;;;;;;;33.50;26.50;;;;;6.95;64.87;103584.91;5022913;28;45342;-59
2022/01/13 01:17:20;;;;;;;;;28.00;21.00;;;;;6.95;64.79;103581.41;5054344;28;45569;-59
2022/01/13 01:19:49;;;;;;;;;28.75;24.00;;;;;6.94;64.86;103595.28;5040382;28;45266;-59
2022/01/13 01:27:27;;;;;;;;;25.50;19.00;;;;;6.93;64.73;103598.72;5047033;28;45360;-59
2022/01/13 01:29:58;;;;;;;;;22.75;19.25;;;;;6.92;64.93;103594.34;5045760;28;45499;-58
2022/01/13 01:32:24;;;;;;;;;32.50;26.00;;;;;6.91;64.94;103595.16;5022302;28;45476;-58
2022/01/13 01:34:55;;;;;;;;;32.50;22.50;;;;;6.89;64.85;103597.69;5040135;28;45299;-59
2022/01/13 01:37:26;;;;;;;;;20.75;20.75;;;;;6.86;64.70;103591.44;5039925;28;45441;-58
2022/01/13 01:39:53;;;;;;;;;30.00;25.50;;;;;6.87;64.84;103594.13;5039603;28;45171;-58
2022/01/13 01:42:21;;;;;;;;;26.25;24.75;;;;;6.87;65.01;103598.44;5039922;28;45492;-59
2022/01/13 01:44:48;;;;;;;;;26.25;21.75;;;;;6.84;64.86;103593.97;5047921;28;45432;-58
2022/01/13 01:47:16;;;;;;;;;26.00;19.75;;;;;6.82;64.97;103591.28;5069541;28;45312;-58
2022/01/13 01:49:46;;;;;;;;;31.00;22.25;;;;;6.80;64.95;103599.88;5053176;28;45548;-58
2022/01/13 01:52:14;;;;;;;;;25.50;24.00;;;;;6.78;65.00;103602.41;5047821;28;45364;-59
2022/01/13 01:54:39;;;;;;;;;28.25;23.75;;;;;6.76;65.12;103597.94;5039763;28;45325;-59
2022/01/13 01:57:06;;;;;;;;;29.75;22.25;;;;;6.75;65.06;103591.81;5039403;28;45562;-59
2022/01/13 01:59:34;;;;;;;;;24.00;19.75;;;;;6.73;65.01;103587.31;5021825;28;45417;-58
2022/01/13 02:02:00;;;;;;;;;28.00;20.00;;;;;6.73;65.05;103598.69;5038429;28;45264;-58
2022/01/13 02:04:26;;;;;;;;;20.75;16.50;;;;;6.73;64.84;103609.16;5053237;28;45231;-59
2022/01/13 02:06:59;;;;;;;;;24.50;21.75;;;;;6.70;64.97;103606.38;5066349;28;45541;-59
2022/01/13 02:09:24;;;;;;;;;20.75;18.50;;;;;6.66;65.09;103605.31;5049749;28;45307;-59
2022/01/13 02:11:54;;;;;;;;;20.00;17.75;;;;;6.67;65.00;103607.13;5067838;28;45201;-59
2022/01/13 02:16:52;;;;;;;;;21.75;20.25;;;;;6.63;64.90;103599.97;5057134;28;45550;-58
2022/01/13 02:19:19;;;;;;;;;20.00;16.50;;;;;6.63;64.77;103607.81;5043139;28;45282;-58
2022/01/13 02:21:45;;;;;;;;;20.75;20.75;;;;;6.62;65.06;103599.91;5041639;28;45413;-58
2022/01/13 02:24:10;;;;;;;;;25.75;19.75;;;;;6.63;64.98;103604.31;5043120;28;45314;-59
2022/01/13 02:26:36;;;;;;;;;22.25;21.75;;;;;6.59;65.01;103618.03;5043302;28;45395;-58
2022/01/13 02:29:02;;;;;;;;;24.75;20.25;;;;;6.59;64.97;103620.66;5076626;28;45320;-58
2022/01/13 02:31:28;;;;;;;;;23.00;16.75;;;;;6.56;65.15;103617.91;5049132;28;45400;-58
2022/01/13 02:33:54;;;;;;;;;21.25;18.50;;;;;6.55;65.16;103614.38;5042973;28;45248;-58
2022/01/13 02:36:22;;;;;;;;;22.50;18.75;;;;;6.54;64.95;103614.31;5042881;28;45428;-59
2022/01/13 02:38:53;;;;;;;;;23.25;19.50;;;;;6.54;64.97;103606.47;5042470;28;45881;-58
2022/01/13 02:41:19;;;;;;;;;20.00;14.50;;;;;6.51;65.01;103607.22;5042837;28;45479;-59
2022/01/13 02:43:46;;;;;;;;;15.25;15.25;;;;;6.51;65.10;103599.38;5042758;28;45234;-58
2022/01/13 02:49:05;;;;;;;;;22.75;19.50;;;;;6.48;65.08;103596.63;5048563;28;45914;-59
2022/01/13 02:51:31;;;;;;;;;21.50;19.25;;;;;6.46;64.85;103593.91;5056324;28;45338;-58
2022/01/13 02:53:57;;;;;;;;;20.50;18.00;;;;;6.45;65.03;103599.06;5042699;28;45345;-58
2022/01/13 02:56:23;;;;;;;;;24.00;17.75;;;;;6.44;65.01;103595.59;5042272;28;45341;-59
2022/01/13 02:58:48;;;;;;;;;20.00;14.25;;;;;6.44;65.21;103600.81;5042465;28;45900;-58
2022/01/13 03:01:14;;;;;;;;;20.50;18.75;;;;;6.43;64.94;103600.75;5042429;28;45364;-58
2022/01/13 03:03:40;;;;;;;;;16.75;15.25;;;;;6.40;64.92;103596.25;5034610;28;45467;-57
2022/01/13 03:06:11;;;;;;;;;20.25;18.50;;;;;6.39;64.88;103602.31;5024362;28;45567;-57
2022/01/13 03:08:44;;;;;;;;;22.25;18.25;;;;;6.36;65.16;103594.31;5044392;28;46218;-58
2022/01/13 03:11:10;;;;;;;;;19.75;16.00;;;;;6.36;65.02;103593.41;5055573;28;45304;-59
2022/01/13 03:13:35;;;;;;;;;22.50;19.00;;;;;6.35;65.04;103602.94;5042161;28;45360;-58
2022/01/13 03:16:09;;;;;;;;;19.00;18.00;;;;;6.30;65.14;103594.91;5049124;28;45484;-58
2022/01/13 03:18:35;;;;;;;;;22.25;18.25;;;;;6.29;65.09;103589.59;5052571;28;48760;-58
2022/01/13 03:21:01;;;;;;;;;24.25;20.00;;;;;6.25;65.25;103593.78;5054824;28;45462;-59
2022/01/13 03:23:26;;;;;;;;;20.75;19.50;;;;;6.23;65.09;103597.16;5042160;28;45284;-58
2022/01/13 03:25:51;;;;;;;;;22.50;19.00;;;;;6.17;65.15;103588.16;5041750;28;45262;-58
2022/01/13 03:28:28;;;;;;;;;20.25;20.00;;;;;6.18;65.07;103589.97;5041207;28;47284;-58
2022/01/13 03:30:55;;;;;;;;;25.50;19.00;;;;;6.16;64.99;103593.31;5042037;28;45386;-59
2022/01/13 03:33:21;;;;;;;;;18.00;16.00;;;;;6.14;65.21;103589.75;5042080;28;45281;-58
2022/01/13 03:35:46;;;;;;;;;19.50;18.75;;;;;6.11;65.08;103587.88;5042114;28;45616;-58
2022/01/13 03:38:12;;;;;;;;;17.50;15.00;;;;;6.11;65.17;103597.41;5023754;28;48335;-58
2022/01/13 03:40:37;;;;;;;;;20.25;18.00;;;;;6.10;65.17;103591.31;5041852;28;45275;-59
2022/01/13 03:43:04;;;;;;;;;23.50;20.00;;;;;6.09;65.07;103597.34;5040281;28;45245;-59
2022/01/13 03:45:32;;;;;;;;;15.25;14.00;;;;;6.01;65.14;103578.69;5052475;28;45253;-58
2022/01/13 03:47:58;;;;;;;;;16.25;14.50;;;;;6.04;65.06;103585.78;5041589;28;45401;-58
2022/01/13 03:50:24;;;;;;;;;21.25;17.25;;;;;6.02;65.17;103587.41;5059156;28;45462;-58
2022/01/13 03:53:28;;;;;;;;;27.75;24.25;;;;;6.01;65.22;103588.22;5044844;28;45697;-58
2022/01/13 03:56:30;;;;;;;;;20.25;17.50;;;;;5.99;65.13;103589.88;5010751;28;45487;-58
2022/01/13 03:58:55;;;;;;;;;25.50;16.50;;;;;5.96;65.07;103587.06;5041429;28;45318;-58
2022/01/13 04:01:51;;;;;;;;;18.25;16.00;;;;;5.95;65.04;103590.47;5041538;28;45439;-58
2022/01/13 04:04:17;;;;;;;;;18.75;16.00;;;;;5.91;65.28;103583.31;5041642;28;45392;-58
2022/01/13 04:06:44;;;;;;;;;20.00;18.00;;;;;5.93;65.02;103598.25;5020207;28;45464;-58
2022/01/13 04:09:30;;;;;;;;;18.25;15.50;;;;;5.94;65.07;103597.44;5027618;28;47394;-59
2022/01/13 04:11:56;;;;;;;;;22.00;15.75;;;;;5.94;65.04;103593.94;5028303;28;45473;-59
2022/01/13 04:14:30;;;;;;;;;19.50;15.25;;;;;5.93;64.99;103590.41;5021389;28;45235;-58
2022/01/13 04:16:56;;;;;;;;;21.75;15.75;;;;;5.92;65.17;103590.34;5035116;28;45458;-58
2022/01/13 04:19:21;;;;;;;;;15.50;14.00;;;;;5.88;65.14;103593.63;5021269;28;45760;-58
2022/01/13 04:21:47;;;;;;;;;19.50;14.75;;;;;5.86;65.30;103590.91;5020034;28;45262;-58
2022/01/13 04:24:13;;;;;;;;;20.25;13.25;;;;;5.83;65.26;103593.38;5021492;28;45174;-58
2022/01/13 04:26:43;;;;;;;;;15.50;13.25;;;;;5.78;65.12;103587.91;5022569;28;45372;-58
2022/01/13 04:31:35;;;;;;;;;19.50;14.25;;;;;5.75;65.09;103589.47;5026027;28;45365;-58
2022/01/13 04:34:01;;;;;;;;;20.50;17.75;;;;;5.75;65.48;103586.84;5021298;28;45387;-59
2022/01/13 04:36:26;;;;;;;;;16.25;14.75;;;;;5.69;65.38;103571.81;5016805;28;45573;-58
2022/01/13 04:38:52;;;;;;;;;16.75;14.25;;;;;5.68;65.29;103580.44;5036268;28;46069;-58
2022/01/13 04:41:29;;;;;;;;;17.75;14.50;;;;;5.67;65.22;103582.16;5034271;28;45727;-58
2022/01/13 04:43:54;;;;;;;;;22.00;16.25;;;;;5.66;65.23;103585.59;5021260;28;45231;-58
2022/01/13 04:46:19;;;;;;;;;18.75;14.75;;;;;5.65;65.16;103588.13;5020956;28;45159;-58
2022/01/13 04:48:45;;;;;;;;;19.00;14.25;;;;;5.61;65.41;103578.31;5024785;28;46703;-58
2022/01/13 04:51:10;;;;;;;;;17.00;13.75;;;;;5.59;65.19;103585.19;5037341;28;45237;-58
2022/01/13 04:53:35;;;;;;;;;14.25;14.00;;;;;5.58;65.41;103581.66;5019908;28;45179;-58
2022/01/13 04:56:09;;;;;;;;;14.75;12.75;;;;;5.56;65.29;103593.75;5020750;28;45231;-58
2022/01/13 04:58:34;;;;;;;;;18.75;11.50;;;;;5.52;65.35;103602.22;5020539;28;47231;-58
2022/01/13 05:00:59;;;;;;;;;19.50;14.50;;;;;5.51;65.27;103601.34;5020573;28;45434;-58
2022/01/13 05:03:25;;;;;;;;;14.00;13.00;;;;;5.49;65.17;103602.06;5043871;28;45270;-58
2022/01/13 05:05:50;;;;;;;;;15.00;12.00;;;;;5.49;65.21;103599.47;5039549;28;45172;-58
2022/01/13 05:08:15;;;;;;;;;15.00;12.00;;;;;5.49;65.33;103602.06;5040584;28;46028;-59
2022/01/13 05:10:41;;;;;;;;;12.00;12.00;;;;;5.48;65.28;103603.75;5053796;28;45196;-59
2022/01/13 05:13:09;;;;;;;;;14.50;13.50;;;;;5.48;65.18;103610.72;5040532;28;45546;-58
2022/01/13 05:15:37;;;;;;;;;14.50;13.25;;;;;5.47;64.99;103606.31;5026374;28;45504;-58
2022/01/13 05:21:07;;;;;;;;;14.75;13.75;;;;;5.45;65.31;103597.53;5051416;28;45558;-58
2022/01/13 05:23:33;;;;;;;;;12.50;11.00;;;;;5.42;65.03;103593.03;5045401;28;45249;-58
2022/01/13 05:25:59;;;;;;;;;16.25;12.00;;;;;5.42;65.19;103603.47;5022269;28;45514;-58
2022/01/13 05:28:24;;;;;;;;;13.75;11.50;;;;;5.40;65.19;103593.78;5039838;28;46190;-58
2022/01/13 05:30:50;;;;;;;;;16.00;11.75;;;;;5.38;65.35;103601.50;5022304;28;45225;-58
2022/01/13 05:33:16;;;;;;;;;13.75;13.25;;;;;5.39;64.94;103600.69;5040362;28;45330;-58
2022/01/13 05:35:41;;;;;;;;;15.25;13.25;;;;;5.39;65.21;103600.69;5040404;28;45511;-58
2022/01/13 05:38:08;;;;;;;;;12.00;11.25;;;;;5.39;65.19;103600.69;5039820;28;45464;-58
2022/01/13 05:40:35;;;;;;;;;16.00;13.75;;;;;5.39;65.45;103600.69;5021962;28;45361;-58
2022/01/13 05:43:01;;;;;;;;;13.25;13.25;;;;;5.42;65.14;103597.34;5039837;28;45328;-58
2022/01/13 05:45:30;;;;;;;;;10.25;7.75;;;;;5.41;65.05;103588.63;5022119;28;46093;-60
2022/01/13 05:47:58;;;;;;;;;13.50;13.50;;;;;5.42;65.14;103584.28;5044683;28;46208;-58
2022/01/13 05:50:24;;;;;;;;;17.50;13.25;;;;;5.44;65.03;103587.91;5062101;28;45320;-58
2022/01/13 05:52:50;;;;;;;;;7.75;7.00;;;;;5.44;65.14;103575.75;5049372;28;45443;-58
2022/01/13 05:55:16;;;;;;;;;16.25;13.50;;;;;5.44;65.35;103582.69;5070548;28;45327;-58
2022/01/13 05:57:42;;;;;;;;;12.75;10.00;;;;;5.42;65.33;103584.28;5043347;28;46111;-58
2022/01/13 06:00:10;;;;;;;;;14.50;10.25;;;;;5.40;65.22;103589.44;5039709;28;45406;-58
2022/01/13 06:02:36;;;;;;;;;17.00;12.75;;;;;5.38;65.41;103596.28;5021584;28;45572;-58
2022/01/13 06:05:02;;;;;;;;;17.25;13.25;;;;;5.37;65.17;103603.22;5025122;28;45547;-58
2022/01/13 06:07:27;;;;;;;;;13.25;9.75;;;;;5.34;65.43;103587.38;5055803;28;46443;-58
2022/01/13 06:09:53;;;;;;;;;12.50;12.50;;;;;5.37;65.37;103594.47;5048676;28;45329;-58
2022/01/13 06:12:20;;;;;;;;;14.75;10.00;;;;;5.36;65.37;103587.50;5030287;28;45320;-58
2022/01/13 06:14:45;;;;;;;;;14.25;11.50;;;;;5.34;65.22;103589.13;5070728;28;45505;-58
2022/01/13 06:17:11;;;;;;;;;14.25;11.25;;;;;5.27;65.28;103592.19;5054322;28;46227;-57
2022/01/13 06:19:37;;;;;;;;;11.50;11.00;;;;;5.29;65.40;103596.69;5021726;28;45331;-57
2022/01/13 06:22:02;;;;;;;;;22.00;17.00;;;;;5.26;65.32;103585.19;5039643;28;45242;-58
2022/01/13 06:24:28;;;;;;;;;9.75;9.25;;;;;5.31;65.50;103594.19;5039456;28;45591;-58
2022/01/13 06:26:53;;;;;;;;;17.00;12.75;;;;;5.30;65.32;103602.81;5055403;28;45509;-58
2022/01/13 06:29:19;;;;;;;;;11.75;10.75;;;;;5.30;65.04;103601.09;5049923;28;45311;-57
2022/01/13 06:31:45;;;;;;;;;14.25;11.75;;;;;5.31;65.25;103602.88;5051583;28;45299;-58
2022/01/13 06:34:10;;;;;;;;;14.75;9.75;;;;;5.29;65.31;103590.59;5049632;28;45193;-59
2022/01/13 06:36:35;;;;;;;;;17.50;15.25;;;;;5.32;65.29;103596.88;5039302;28;45928;-58
2022/01/13 06:39:02;;;;;;;;;16.25;13.50;;;;;5.32;65.20;103594.25;5049416;28;45179;-57
2022/01/13 06:41:27;;;;;;;;;16.00;12.00;;;;;5.25;65.19;103575.59;5042352;28;45390;-58
2022/01/13 06:43:53;;;;;;;;;15.00;13.00;;;;;5.34;65.20;103594.34;5039219;28;45336;-58
2022/01/13 06:46:18;;;;;;;;;21.00;14.00;;;;;5.35;65.20;103588.31;5039059;28;45365;-59
2022/01/13 06:48:45;;;;;;;;;12.50;11.50;;;;;5.36;65.08;103592.72;5024832;28;45426;-58
2022/01/13 06:51:10;;;;;;;;;17.50;12.50;;;;;5.37;65.29;103591.88;5055679;28;45479;-58
2022/01/13 06:53:36;;;;;;;;;15.25;12.00;;;;;5.38;65.27;103593.66;5039222;28;45246;-58
2022/01/13 06:56:01;;;;;;;;;14.00;12.75;;;;;5.38;65.16;103593.66;5038779;28;46554;-59
2022/01/13 06:58:27;;;;;;;;;14.25;9.75;;;;;5.37;65.20;103594.47;5038972;28;45217;-59
2022/01/13 07:00:53;;;;;;;;;16.25;13.50;;;;;5.38;65.13;103598.88;5047104;28;45380;-60
2022/01/13 07:03:20;;;;;;;;;16.00;13.00;;;;;5.39;65.25;103587.66;5071707;28;45293;-60
2022/01/13 07:05:45;;;;;;;;;16.25;13.25;;;;;5.39;65.20;103595.47;5044593;28;47113;-60
2022/01/13 07:08:11;;;;;;;;;16.00;14.75;;;;;5.41;65.16;103596.47;5042274;28;45238;-60
2022/01/13 07:10:37;;;;;;;;;18.50;17.50;;;;;5.43;65.27;103602.63;5059292;28;45492;-60
2022/01/13 07:13:03;;;;;;;;;19.75;16.25;;;;;5.45;65.20;103592.31;5073999;28;45319;-59
2022/01/13 07:15:28;;;;;;;;;19.00;17.00;;;;;5.42;65.52;103600.88;5049496;28;45442;-60
2022/01/13 07:17:54;;;;;;;;;19.25;13.50;;;;;5.44;65.03;103596.59;5035589;28;45428;-60
2022/01/13 07:20:20;;;;;;;;;15.75;14.25;;;;;5.48;64.99;103610.72;5042330;28;45329;-60
2022/01/13 07:22:45;;;;;;;;;15.25;14.25;;;;;5.48;65.19;103611.59;5042354;28;45404;-60
2022/01/13 07:25:11;;;;;;;;;16.00;15.75;;;;;5.49;65.27;103605.56;5041892;28;45358;-60
2022/01/13 07:27:36;;;;;;;;;18.25;17.50;;;;;5.47;65.25;103606.31;5042155;28;45214;-60
2022/01/13 07:30:03;;;;;;;;;11.75;11.25;;;;;5.50;65.25;103612.59;5040856;28;46221;-60
2022/01/13 07:32:28;;;;;;;;;15.50;11.25;;;;;5.49;65.29;103610.78;5042184;28;45226;-59
2022/01/13 07:34:54;;;;;;;;;19.75;17.50;;;;;5.49;65.30;103605.56;5024007;28;45309;-59
2022/01/13 07:37:24;;;;;;;;;16.25;14.75;;;;;5.48;65.39;103601.16;5060821;28;45236;-58
2022/01/13 07:39:49;;;;;;;;;15.50;13.50;;;;;5.46;65.38;103605.41;5062353;28;45339;-58
2022/01/13 07:42:16;;;;;;;;;16.00;12.75;;;;;5.43;65.39;103604.34;5041537;28;45280;-57
2022/01/13 07:44:41;;;;;;;;;17.00;11.75;;;;;5.44;65.46;103607.03;5048777;28;46803;-60
2022/01/13 07:47:07;;;;;;;;;17.00;13.00;;;;;5.44;65.28;103603.53;5071836;28;45273;-57
2022/01/13 07:49:34;;;;;;;;;15.00;12.25;;;;;5.47;65.28;103620.25;5055133;28;45308;-59
2022/01/13 07:52:00;;;;;;;;;14.25;14.25;;;;;5.44;65.36;103614.88;5047918;28;45407;-59
2022/01/13 07:54:28;;;;;;;;;21.25;14.25;;;;;5.47;65.38;103612.44;5054845;28;46418;-59
2022/01/13 07:56:54;;;;;;;;;12.50;10.25;;;;;5.45;65.38;103608.84;5041372;28;45344;-56
2022/01/13 07:59:19;;;;;;;;;18.00;16.75;;;;;5.45;65.35;103601.00;5024730;28;46834;-56
2022/01/13 08:01:45;;;;;;;;;14.00;13.00;;;;;5.46;65.29;103592.38;5058542;28;45575;-58
2022/01/13 08:04:11;;;;;;;;;16.75;13.50;;;;;5.47;64.93;103607.22;5056592;28;46040;-57
2022/01/13 08:06:36;;;;;;;;;17.75;13.50;;;;;5.41;65.29;103592.94;5060372;28;45426;-56
2022/01/13 08:09:01;;;;;;;;;17.75;14.75;;;;;5.44;65.39;103604.44;5057976;28;45447;-58
2022/01/13 08:11:28;;;;;;;;;20.00;12.00;;;;;5.39;65.35;103592.84;5060483;28;45456;-59
2022/01/13 08:13:53;;;;;;;;;22.75;18.00;;;;;5.44;65.56;103607.03;5049937;28;47103;-58
2022/01/13 08:16:19;;;;;;;;;16.50;14.75;;;;;5.45;65.28;103606.22;5057269;28;45361;-58
2022/01/13 08:21:29;;;;;;;;;21.00;15.25;;;;;5.42;65.45;103598.25;5055125;28;45698;-57
2022/01/13 08:23:55;;;;;;;;;21.50;15.50;;;;;5.43;65.15;103601.75;5059944;28;46423;-59
2022/01/13 08:26:20;;;;;;;;;18.00;16.50;;;;;5.43;65.27;103600.03;5060139;28;45342;-59
2022/01/13 08:28:46;;;;;;;;;21.50;15.25;;;;;5.42;65.37;103598.25;5042460;28;45310;-58
2022/01/13 08:31:11;;;;;;;;;18.25;13.75;;;;;5.41;65.19;103601.66;5040762;28;45448;-58
2022/01/13 08:33:39;;;;;;;;;15.75;13.75;;;;;5.41;65.43;103596.47;5033830;28;46008;-58
2022/01/13 08:36:05;;;;;;;;;26.50;17.00;;;;;5.41;65.41;103596.47;5040660;28;45467;-60
2022/01/13 08:38:30;;;;;;;;;18.25;16.25;;;;;5.41;65.41;103600.75;5040413;28;45452;-60
2022/01/13 08:40:58;;;;;;;;;21.00;14.50;;;;;5.40;65.45;103592.06;5040390;28;45511;-60
2022/01/13 08:43:26;;;;;;;;;24.00;15.00;;;;;5.41;65.45;103588.63;5038738;28;46241;-57
2022/01/13 08:45:51;;;;;;;;;15.75;13.50;;;;;5.40;65.49;103592.06;5040647;28;45420;-53
2022/01/13 08:48:17;;;;;;;;;14.00;12.50;;;;;5.43;65.45;103596.53;5040491;28;45407;-56
2022/01/13 08:50:43;;;;;;;;;15.75;14.25;;;;;5.41;65.44;103596.47;5040470;28;45450;-54
2022/01/13 08:53:09;;;;;;;;;26.50;19.50;;;;;5.39;65.50;103595.47;5022320;28;47264;-57
2022/01/13 08:55:35;;;;;;;;;18.75;17.50;;;;;5.39;65.81;103605.91;5040256;28;45396;-56
2022/01/13 08:58:00;;;;;;;;;18.50;17.75;;;;;5.39;65.53;103603.28;5040054;28;45423;-59
2022/01/13 09:00:27;;;;;;;;;17.50;16.50;;;;;5.38;65.36;103598.88;5022480;28;45441;-55
2022/01/13 09:02:52;;;;;;;;;23.75;22.25;;;;;5.40;65.52;103604.22;5040151;28;45422;-53
2022/01/13 09:05:19;;;;;;;;;19.00;15.25;;;;;5.40;65.62;103605.09;5022222;28;45319;-53
2022/01/13 09:07:45;;;;;;;;;23.00;20.75;;;;;5.41;65.51;103606.88;5018653;28;45250;-58
2022/01/13 09:10:12;;;;;;;;;23.50;18.50;;;;;5.42;65.62;103602.56;5031773;28;45332;-58
2022/01/13 09:12:38;;;;;;;;;24.00;20.50;;;;;5.44;65.35;103612.25;5021921;28;46985;-58
2022/01/13 09:15:19;;;;;;;;;21.00;17.00;;;;;5.45;65.12;103603.63;5030572;28;45382;-58
2022/01/13 09:17:51;;;;;;;;;19.00;17.75;;;;;5.45;65.46;103614.06;5031054;28;45436;-61
2022/01/13 09:20:17;;;;;;;;;24.50;19.00;;;;;5.47;65.55;103619.34;5022932;28;45511;-59
2022/01/13 09:22:43;;;;;;;;;19.25;17.75;;;;;5.40;65.43;103605.09;5037862;28;45465;-59
2022/01/13 09:25:11;;;;;;;;;19.75;17.00;;;;;5.45;65.56;103619.28;5030558;28;45287;-58
2022/01/13 09:27:40;;;;;;;;;19.25;16.25;;;;;5.49;65.51;103625.56;5037825;28;46298;-58
2022/01/13 09:30:07;;;;;;;;;23.75;19.00;;;;;5.50;65.69;103630.84;5036368;28;45437;-56
2022/01/13 09:32:32;;;;;;;;;22.00;18.50;;;;;5.51;65.58;103627.41;5019736;28;46605;-58
2022/01/13 09:34:58;;;;;;;;;20.75;13.75;;;;;5.51;65.62;103632.63;5024578;28;45622;-57
2022/01/13 09:37:24;;;;;;;;;27.25;19.25;;;;;5.51;65.70;103630.03;5038739;28;45325;-58
2022/01/13 09:39:49;;;;;;;;;23.00;17.75;;;;;5.54;65.77;103629.28;5034566;28;45423;-59
2022/01/13 09:42:16;;;;;;;;;23.00;16.50;;;;;5.53;65.53;103635.31;5029842;28;45954;-58
2022/01/13 09:44:42;;;;;;;;;18.25;17.00;;;;;5.59;65.56;103632.16;5022480;28;45367;-61
2022/01/13 09:47:07;;;;;;;;;21.00;19.00;;;;;5.59;65.79;103635.66;5019960;28;45476;-59
2022/01/13 09:49:32;;;;;;;;;20.50;18.75;;;;;5.62;65.55;103645.34;5029735;28;45478;-58
2022/01/13 09:51:58;;;;;;;;;21.25;17.00;;;;;5.62;65.57;103647.97;5027738;28;48266;-57
2022/01/13 09:54:23;;;;;;;;;19.50;19.25;;;;;5.63;65.76;103648.03;5019415;28;45389;-57
2022/01/13 09:56:49;;;;;;;;;19.75;16.00;;;;;5.66;65.63;103649.91;5018316;28;45416;-53
2022/01/13 09:59:14;;;;;;;;;18.00;13.75;;;;;5.66;65.66;103648.22;5019532;28;45769;-53
2022/01/13 10:01:39;;;;;;;;;19.25;18.25;;;;;5.68;65.64;103648.28;5019478;28;45581;-53
2022/01/13 10:04:05;;;;;;;;;23.25;16.75;;;;;5.72;65.78;103651.94;5017812;28;45445;-50
2022/01/13 10:06:41;;;;;;;;;20.50;20.00;;;;;5.73;65.63;103651.16;5055924;28;45568;-59
2022/01/13 10:09:07;;;;;;;;;20.25;17.25;;;;;5.73;65.55;103645.94;5029204;28;45294;-52
2022/01/13 10:11:37;;;;;;;;;23.25;20.00;;;;;5.73;65.50;103638.97;5031572;28;47179;-51
2022/01/13 10:14:16;;;;;;;;;27.25;22.25;;;;;5.74;65.65;103647.72;5039008;28;45368;-54
2022/01/13 10:16:55;;;;;;;;;23.50;20.00;;;;;5.77;65.54;103650.47;5052085;28;45303;-48
2022/01/13 10:19:29;;;;;;;;;23.00;19.75;;;;;5.75;65.66;103652.09;5046147;28;45274;-50
2022/01/13 10:22:00;;;;;;;;;24.25;19.50;;;;;5.68;65.81;103659.59;5043897;28;46146;-52
2022/01/13 10:24:28;;;;;;;;;21.50;20.00;;;;;5.66;65.90;103650.81;5020990;28;45539;-54
2022/01/13 10:27:04;;;;;;;;;22.75;22.75;;;;;5.69;65.68;103650.09;5038820;28;45414;-50
2022/01/13 10:29:40;;;;;;;;;19.25;19.00;;;;;5.70;65.54;103646.66;5029943;28;45580;-51
2022/01/13 10:32:07;;;;;;;;;24.00;19.00;;;;;5.71;65.66;103643.25;5056788;28;45354;-53
2022/01/13 10:34:36;;;;;;;;;28.25;22.50;;;;;5.72;65.63;103641.50;5046142;28;45423;-50
2022/01/13 10:37:04;;;;;;;;;24.25;20.00;;;;;5.74;65.48;103643.38;5075288;28;45329;-52
2022/01/13 10:39:59;;;;;;;;;24.00;19.50;;;;;5.77;65.54;103637.44;5052050;28;45608;-53
2022/01/13 10:45:25;;;;;;;;;21.25;18.00;;;;;5.76;65.51;103626.09;5042290;28;45452;-49
2022/01/13 10:47:56;;;;;;;;;21.50;17.50;;;;;5.81;65.60;103624.63;5042323;28;45483;-48
2022/01/13 10:50:30;;;;;;;;;20.50;18.25;;;;;5.85;65.54;103629.19;5059367;28;45461;-50
2022/01/13 10:53:02;;;;;;;;;25.75;20.50;;;;;5.88;65.40;103630.16;5075601;28;46259;-49
2022/01/13 10:55:30;;;;;;;;;20.25;19.25;;;;;5.90;65.54;103621.59;5049956;28;45383;-48
2022/01/13 10:57:55;;;;;;;;;24.50;20.25;;;;;5.90;65.40;103619.00;5041772;28;45535;-59
2022/01/13 11:00:24;;;;;;;;;24.50;23.00;;;;;5.97;65.55;103625.41;5042023;28;45499;-53
2022/01/13 11:03:12;;;;;;;;;25.25;20.75;;;;;6.00;65.51;103625.63;5041838;28;46101;-51
2022/01/13 11:05:46;;;;;;;;;22.25;20.25;;;;;6.03;65.44;103630.09;5041670;28;45264;-51
2022/01/13 11:08:18;;;;;;;;;25.00;21.00;;;;;6.07;65.50;103626.81;5051621;28;45390;-53
2022/01/13 11:10:48;;;;;;;;;26.25;24.25;;;;;6.10;65.49;103622.66;5043304;28;45368;-50
2022/01/13 11:13:19;;;;;;;;;36.75;28.50;;;;;6.15;65.52;103623.78;5044284;28;46142;-51
2022/01/13 11:15:49;;;;;;;;;21.50;21.00;;;;;6.20;65.38;103623.09;5059557;28;45480;-48
2022/01/13 11:18:19;;;;;;;;;34.75;28.00;;;;;6.24;65.54;103611.97;5050686;28;45464;-47
2022/01/13 11:20:47;;;;;;;;;34.25;27.50;;;;;6.26;65.48;103606.00;5020670;28;45349;-51
2022/01/13 11:23:14;;;;;;;;;31.50;27.25;;;;;6.31;65.58;103607.16;5046840;28;47191;-52
2022/01/13 11:25:40;;;;;;;;;24.75;23.50;;;;;6.36;65.52;103596.91;5047600;28;45305;-49
2022/01/13 11:28:07;;;;;;;;;30.25;25.50;;;;;6.39;65.39;103598.78;5040451;28;45331;-52
2022/01/13 11:30:32;;;;;;;;;25.00;19.00;;;;;6.39;65.60;103594.47;5052509;28;45450;-50
2022/01/13 11:32:58;;;;;;;;;26.25;24.00;;;;;6.45;65.35;103600.00;5054577;28;46005;-52
2022/01/13 11:35:27;;;;;;;;;29.25;26.25;;;;;6.48;65.55;103596.63;5061940;28;45294;-52
2022/01/13 11:37:56;;;;;;;;;30.00;25.50;;;;;6.50;65.51;103594.97;5061754;28;45448;-52
2022/01/13 11:40:27;;;;;;;;;37.50;26.75;;;;;6.55;65.37;103592.59;5036057;28;45332;-49
2022/01/13 11:42:58;;;;;;;;;32.25;32.25;;;;;6.55;65.47;103597.81;5056685;28;46312;-53
2022/01/13 11:45:25;;;;;;;;;32.75;29.50;;;;;6.56;65.43;103587.44;5061461;28;45463;-49